Latest Weather Observations for Maria Island

IDT60901

Issued at 8:15 pm EST Wednesday 16 April 2014 (issued every 10 minutes, with the page automatically refreshed every 10 minutes)

About weather observations | Map of Hobart area stations | Latest observations for Hobart area | Other Formats
Station Details ID: 092124 Name: MARIA ISLAND (POINT LESUEUR) Lat: -42.66 Lon: 148.02 Height: 28.0 m
Data from the previous 72 hours. | See also: Recent months at Maria Island
Date/Time
EST
Tmp

°C
App
Tmp
°C
Dew
Point
°C
Rel
Hum
%
Delta-T

°C
Wind Press
QNH
hPa
Press
MSL
hPa
Rain
since
9 am
mm
Dir
 
Spd
km/h
Gust
km/h
Spd
kts
Gust
kts
16/08:00pm 14.9 12.1 11.3 79 1.9 NNE 17 19 9 10 1020.6 1020.6 0.0
16/07:30pm 14.7 11.5 11.3 80 1.8 N 19 22 10 12 1020.5 - 0.0
16/07:00pm 14.6 12.1 11.2 80 1.8 N 15 19 8 10 1020.6 1020.6 0.0
16/06:30pm 14.6 12.1 11.0 79 1.9 NNE 15 19 8 10 1020.5 - 0.0
16/06:00pm 14.9 12.5 11.3 79 1.9 NNE 15 19 8 10 1020.5 1020.5 0.0
16/05:30pm 15.3 11.5 11.1 76 2.2 NNE 22 26 12 14 1020.3 - 0.0
16/05:00pm 15.6 13.1 11.0 74 2.4 N 15 19 8 10 1020.4 1020.4 0.0
16/04:30pm 16.4 13.9 9.6 64 3.5 NNE 13 19 7 10 1020.4 - 0.0
16/04:00pm 16.8 13.7 9.0 60 4.0 N 15 19 8 10 1020.4 1020.4 0.0
16/03:30pm 17.2 14.7 8.4 56 4.5 N 11 13 6 7 1020.6 - 0.0
16/03:00pm 17.7 14.4 9.6 59 4.2 N 17 19 9 10 1020.6 1020.6 0.0
16/02:30pm 17.7 14.8 9.6 59 4.3 N 15 19 8 10 1020.5 - 0.0
16/02:00pm 18.0 16.0 8.8 55 4.8 NNE 9 15 5 8 1020.6 1020.6 0.0
16/01:30pm 16.6 14.4 9.3 62 3.8 N 11 15 6 8 1020.9 - 0.0
16/01:00pm 16.0 14.0 11.6 75 2.4 N 13 17 7 9 1021.2 1021.2 0.0
16/12:30pm 15.6 13.1 11.2 75 2.4 N 15 17 8 9 1021.7 - 0.0
16/12:00pm 16.5 13.7 11.2 71 2.8 N 17 20 9 11 1022.0 1022.0 0.0
16/11:30am 16.6 14.2 11.5 72 2.8 N 15 19 8 10 1022.3 - 0.0
16/11:00am 16.1 15.9 11.9 76 2.3 NNW 4 9 2 5 1022.6 1022.6 0.0
16/10:30am 15.3 14.4 11.5 78 2.0 NE 7 11 4 6 1022.8 - 0.0
16/10:00am 13.9 12.0 11.8 87 1.1 N 13 17 7 9 1023.0 1023.0 0.0
16/09:30am 13.1 12.0 12.0 93 0.6 NNE 9 13 5 7 1023.3 - 0.0
16/09:00am 13.1 11.7 12.2 94 0.5 N 11 13 6 7 1023.6 1023.6 0.0
16/08:30am 13.3 13.3 11.2 87 1.1 N 2 6 1 3 1023.7 - 0.0
16/08:00am 13.1 12.8 11.3 89 0.9 NE 4 4 2 2 1023.6 1023.6 0.0
16/07:30am 12.7 13.1 11.4 92 0.7 NE 0 0 0 0 1023.6 - 0.0
16/07:00am 12.1 12.0 10.8 92 0.7 NE 2 4 1 2 1023.3 1023.3 0.0
16/06:30am 12.0 11.1 10.6 91 0.7 ENE 6 6 3 3 1023.1 - 0.0
16/06:00am 12.1 11.5 10.5 90 0.8 ESE 4 6 2 3 1023.0 1023.0 0.0
16/05:30am 12.5 12.7 10.6 88 1.0 CALM 0 0 0 0 1023.1 - 0.0
16/05:00am 12.6 12.5 10.8 89 0.9 N 2 4 1 2 1023.1 1023.1 0.0
16/04:30am 12.3 11.8 10.7 90 0.8 NNE 4 4 2 2 1023.2 - 0.0
16/04:00am 12.4 12.2 10.5 88 1.0 E 2 2 1 1 1023.0 1023.0 0.0
16/03:30am 12.4 11.5 10.5 88 1.0 ENE 6 7 3 4 1023.2 - 0.0
16/03:00am 12.8 12.6 10.3 85 1.3 NE 2 4 1 2 1023.4 1023.4 0.0
16/02:30am 13.0 11.8 10.2 83 1.4 NNW 7 9 4 5 1023.8 - 0.0
16/02:00am 13.1 11.8 9.9 81 1.6 NW 7 7 4 4 1024.2 1024.2 0.0
16/01:30am 13.1 12.1 10.3 83 1.5 W 6 7 3 4 1024.5 - 0.0
16/01:00am 13.4 12.4 11.1 86 1.2 SSW 7 9 4 5 1024.6 1024.6 0.0
16/12:30am 13.5 12.2 11.2 86 1.2 SSW 9 13 5 7 1024.7 - 0.0
16/12:00am 13.4 12.1 11.3 87 1.1 S 9 13 5 7 1024.8 1024.8 0.0
 
Date/Time
EST
Tmp

°C
App
Tmp
°C
Dew
Point
°C
Rel
Hum
%
Delta-T

°C
Wind Press
QNH
hPa
Press
MSL
hPa
Rain
since
9 am
mm
Dir
 
Spd
km/h
Gust
km/h
Spd
kts
Gust
kts
15/11:30pm 13.5 12.5 11.0 85 1.3 S 7 11 4 6 1024.9 - 0.0
15/11:00pm 13.1 12.1 10.3 83 1.4 W 6 9 3 5 1025.0 1025.0 0.0
15/10:30pm 13.3 12.7 10.3 82 1.6 S 4 4 2 2 1025.1 - 0.0
15/10:00pm 13.4 11.9 10.6 83 1.5 S 9 11 5 6 1025.3 1025.3 0.0
15/09:30pm 13.4 11.6 10.8 84 1.4 S 11 13 6 7 1025.5 - 0.0
15/09:00pm 13.3 11.7 10.3 82 1.5 SSE 9 13 5 7 1025.5 1025.5 0.0
15/08:30pm 13.5 11.4 9.6 77 2.0 S 11 15 6 8 1025.5 - 0.0
15/08:00pm 13.2 11.4 9.5 78 1.9 S 9 13 5 7 1025.4 1025.4 0.0
15/07:30pm 13.0 11.5 9.3 78 1.9 S 7 11 4 6 1025.3 - 0.0
15/07:00pm 13.6 11.7 9.1 74 2.3 SSW 9 13 5 7 1025.3 1025.3 0.0
15/06:30pm 13.8 11.2 9.3 74 2.3 S 13 17 7 9 1025.1 - 0.0
15/06:00pm 13.6 11.0 9.3 75 2.2 S 13 17 7 9 1024.8 1024.8 0.0
15/05:30pm 13.7 11.1 9.4 75 2.2 SSW 13 17 7 9 1024.7 - 0.0
15/05:00pm 13.8 10.5 9.6 76 2.1 SSW 17 20 9 11 1024.7 1024.7 0.0
15/04:30pm 14.1 10.5 9.9 76 2.2 SSW 19 20 10 11 1024.7 - 0.0
15/04:00pm 13.6 9.7 9.5 76 2.1 S 20 22 11 12 1024.9 1024.9 0.0
15/03:30pm 14.6 11.2 10.4 76 2.2 S 19 26 10 14 1024.9 - 0.0
15/03:00pm 14.7 11.3 9.1 69 2.8 SSW 17 22 9 12 1024.9 1024.9 0.0
15/02:30pm 14.6 11.0 8.5 67 3.1 S 17 26 9 14 1024.9 - 0.0
15/02:00pm 14.7 10.2 8.4 66 3.2 SSW 22 26 12 14 1024.9 1024.9 0.0
15/01:30pm 14.4 10.8 8.4 67 3.0 SW 17 22 9 12 1024.8 - 0.0
15/01:00pm 14.4 10.5 8.6 68 2.9 SSE 19 24 10 13 1025.0 1025.0 0.0
15/12:30pm 14.5 10.4 6.3 58 3.9 SSW 17 26 9 14 1025.3 - 0.0
15/12:00pm 14.5 10.1 6.6 59 3.8 SSW 19 26 10 14 1025.5 1025.5 0.0
15/11:30am 15.1 11.2 7.2 59 3.9 SSW 17 20 9 11 1025.7 - 0.0
15/11:00am 14.9 10.5 6.5 57 4.0 SSW 19 24 10 13 1025.7 1025.7 0.0
15/10:30am 14.8 10.5 6.9 59 3.9 SW 19 22 10 12 1025.8 - 0.0
15/10:00am 14.6 9.8 7.2 61 3.6 SSW 22 26 12 14 1025.8 1025.8 0.0
15/09:30am 14.3 9.9 7.4 63 3.4 SW 20 24 11 13 1025.8 - 0.0
15/09:00am 14.2 9.9 6.8 61 3.6 SW 19 22 10 12 1025.7 1025.7 0.4
15/08:30am 14.0 9.0 6.4 60 3.7 SSW 22 26 12 14 1025.7 - 0.4
15/08:00am 13.9 9.0 6.7 62 3.5 S 22 28 12 15 1025.6 1025.6 0.4
15/07:30am 13.5 9.4 7.9 69 2.8 SSW 19 24 10 13 1025.4 - 0.4
15/07:00am 13.6 9.1 8.4 71 2.6 SSW 22 28 12 15 1025.1 1025.1 0.4
15/06:30am 13.7 9.6 7.7 67 3.0 S 19 24 10 13 1024.9 - 0.4
15/06:00am 13.4 9.0 7.4 67 2.9 SSW 20 24 11 13 1024.7 1024.7 0.4
15/05:30am 13.5 9.1 7.5 67 2.9 S 20 28 11 15 1024.7 - 0.4
15/05:00am 13.5 8.5 8.1 70 2.7 SSW 24 30 13 16 1024.7 1024.7 0.4
15/04:30am 13.3 9.3 8.4 72 2.4 SW 19 26 10 14 1024.6 - 0.4
15/04:00am 13.2 10.0 8.5 73 2.3 SW 15 19 8 10 1024.6 1024.6 0.2
15/03:30am 13.3 8.8 8.4 72 2.4 S 22 28 12 15 1024.5 - 0.2
15/03:00am 13.2 9.8 9.1 76 2.1 SSW 17 24 9 13 1024.5 1024.5 0.2
15/02:30am 13.2 9.4 9.1 76 2.1 SSW 19 24 10 13 1024.6 - 0.2
15/02:00am 13.3 9.9 9.2 76 2.1 SSW 17 24 9 13 1024.6 1024.6 0.2
15/01:30am 13.4 10.1 9.5 77 2.0 SSW 17 20 9 11 1024.6 - 0.2
15/01:00am 13.3 9.6 9.4 77 2.0 SSW 19 22 10 12 1024.6 1024.6 0.2
15/12:30am 13.2 9.5 9.5 78 1.9 SSW 19 22 10 12 1024.6 - 0.2
15/12:00am 13.3 10.0 9.7 79 1.8 S 17 20 9 11 1024.7 1024.7 0.2
 
Date/Time
EST
Tmp

°C
App
Tmp
°C
Dew
Point
°C
Rel
Hum
%
Delta-T

°C
Wind Press
QNH
hPa
Press
MSL
hPa
Rain
since
9 am
mm
Dir
 
Spd
km/h
Gust
km/h
Spd
kts
Gust
kts
14/11:30pm 13.1 9.5 9.7 80 1.7 S 19 24 10 13 1024.7 - 0.2
14/11:00pm 13.0 9.8 9.8 81 1.6 SSE 17 20 9 11 1024.8 1024.8 0.2
14/10:30pm 12.8 8.6 9.8 82 1.5 S 22 30 12 16 1025.0 - 0.2
14/10:00pm 12.6 9.2 10.5 87 1.1 SSE 19 28 10 15 1025.0 1025.0 0.2
14/09:30pm 12.9 9.3 10.6 86 1.2 SSE 20 28 11 15 1024.9 - 0.2
14/09:00pm 13.0 9.6 10.7 86 1.2 SSE 19 32 10 17 1024.9 1024.9 0.0
14/08:30pm 13.1 9.8 11.0 87 1.1 S 19 26 10 14 1024.8 - 0.0
14/08:00pm 13.7 9.9 11.0 84 1.4 S 22 33 12 18 1024.6 1024.6 0.0
14/07:30pm 14.2 9.5 10.8 80 1.8 S 26 32 14 17 1024.3 - 0.0
14/07:00pm 14.3 9.6 10.7 79 1.9 S 26 33 14 18 1024.1 1024.1 0.0
14/06:30pm 14.6 10.0 11.0 79 1.9 S 26 32 14 17 1023.8 - 0.0
14/06:00pm 14.9 10.3 10.9 77 2.1 S 26 32 14 17 1023.4 1023.4 0.0
14/05:30pm 14.9 9.9 10.9 77 2.1 SSE 28 33 15 18 1023.0 - 0.0
14/05:00pm 15.0 9.3 11.2 78 2.0 SSE 32 37 17 20 1022.7 1022.7 0.0
14/04:30pm 15.1 10.1 12.1 82 1.6 SSE 30 35 16 19 1022.6 - 0.0
14/04:00pm 15.6 10.3 12.4 81 1.7 SSE 32 37 17 20 1022.4 1022.4 0.0
14/03:30pm 15.9 11.4 12.5 80 1.9 SSE 28 33 15 18 1022.3 - 0.0
14/03:00pm 17.1 13.4 12.8 76 2.4 SSE 24 30 13 16 1022.2 1022.2 0.0
14/02:30pm 17.3 14.4 12.2 72 2.8 SSE 19 24 10 13 1022.1 - 0.0
14/02:00pm 17.9 14.8 11.7 67 3.4 S 19 26 10 14 1022.1 1022.1 0.0
14/01:30pm 17.7 14.1 11.7 68 3.3 S 22 26 12 14 1022.0 - 0.0
14/01:00pm 17.9 14.3 11.7 67 3.4 S 22 26 12 14 1022.2 1022.2 0.0
14/12:30pm 17.7 14.7 11.9 69 3.2 S 19 22 10 12 1022.6 - 0.0
14/12:00pm 17.5 14.5 11.8 69 3.1 S 19 20 10 11 1022.9 1022.9 0.0
14/11:30am 17.3 14.3 12.0 71 2.9 S 19 22 10 12 1023.1 - 0.0
14/11:00am 16.9 13.7 11.8 72 2.8 S 20 24 11 13 1023.1 1023.1 0.0
14/10:30am 16.7 13.2 12.3 75 2.4 S 22 26 12 14 1023.3 - 0.0
14/10:00am 16.2 12.5 11.4 73 2.6 S 22 26 12 14 1023.4 1023.4 0.0
14/09:30am 15.7 13.3 11.3 75 2.4 S 15 19 8 10 1023.5 - 0.0
14/09:00am 14.9 11.6 10.9 77 2.1 SSW 19 20 10 11 1023.5 1023.5 0.0
14/08:30am 14.9 12.5 11.3 79 1.9 SSW 15 19 8 10 1023.4 - 0.0
14/08:00am 14.6 13.2 11.0 79 1.9 SSW 9 13 5 7 1023.4 1023.4 0.0
14/07:30am 14.5 12.8 11.3 81 1.7 SSW 11 13 6 7 1023.2 - 0.0
14/07:00am 14.0 12.9 10.8 81 1.7 WSW 7 11 4 6 1023.1 1023.1 0.0
14/06:30am 14.0 12.6 11.0 82 1.6 SSW 9 13 5 7 1022.8 - 0.0
14/06:00am 13.9 12.6 11.1 83 1.5 SW 9 13 5 7 1022.7 1022.7 0.0
14/05:30am 13.9 12.2 11.2 84 1.4 SW 11 15 6 8 1022.8 - 0.0
14/05:00am 14.0 11.9 11.2 83 1.5 SW 13 17 7 9 1022.6 1022.6 0.0
14/04:30am 14.2 12.1 11.2 82 1.6 SSW 13 17 7 9 1022.6 - 0.0
14/04:00am 14.3 11.8 10.9 80 1.8 SSW 15 17 8 9 1022.5 1022.5 0.0
14/03:30am 14.2 12.1 11.0 81 1.7 SSW 13 17 7 9 1022.4 - 0.0
14/03:00am 14.2 11.7 11.2 82 1.6 SSW 15 17 8 9 1022.4 1022.4 0.0
14/02:30am 14.2 11.3 11.0 81 1.7 SSW 17 20 9 11 1022.4 - 0.0
14/02:00am 14.3 11.6 10.5 78 2.0 SSW 15 17 8 9 1022.6 1022.6 0.0
14/01:30am 14.4 12.0 10.0 75 2.3 SSW 13 15 7 8 1022.6 - 0.0
14/01:00am 14.1 12.8 9.9 76 2.2 S 7 11 4 6 1022.7 1022.7 0.0
14/12:30am 13.0 11.9 9.8 81 1.6 W 6 7 3 4 1022.6 - 0.0
14/12:00am 13.0 11.1 8.9 76 2.1 WNW 9 9 5 5 1022.7 1022.7 0.0
 
Date/Time
EST
Tmp

°C
App
Tmp
°C
Dew
Point
°C
Rel
Hum
%
Delta-T

°C
Wind Press
QNH
hPa
Press
MSL
hPa
Rain
since
9 am
mm
Dir
 
Spd
km/h
Gust
km/h
Spd
kts
Gust
kts
13/11:30pm 13.1 11.8 9.9 81 1.6 WNW 7 9 4 5 1022.9 - 0.0
13/11:00pm 12.8 11.6 10.2 84 1.3 NW 7 9 4 5 1023.0 1023.0 0.0
13/10:30pm 12.8 11.1 10.0 83 1.4 WNW 9 11 5 6 1023.2 - 0.0
13/10:00pm 13.1 10.9 9.2 77 2.0 WNW 11 13 6 7 1023.3 1023.3 0.0
13/09:30pm 13.3 10.9 8.8 74 2.3 WNW 11 13 6 7 1023.0 - 0.0
13/09:00pm 13.7 12.1 8.7 72 2.5 WNW 7 9 4 5 1023.0 1023.0 0.0
13/08:30pm 14.7 12.0 8.9 68 3.0 N 13 13 7 7 1022.9 - 0.0

Latest Capital City Observations: Canberra | Sydney | Melbourne | Brisbane | Adelaide | Perth | Hobart | Darwin

Other Formats:

Comma delimited format used in spreadsheet applications
http://www.bom.gov.au/fwo/IDT60901/IDT60901.95988.axf

JavaScript Object Notation format (JSON) in row-major order
http://www.bom.gov.au/fwo/IDT60901/IDT60901.95988.json